Terminal Aerodrome Forecast
Issued by NWS Shreveport, LA

Home | Current Version | Previous Version | Text Only | Print | Product List | Glossary On
Versions: 1 2 3 4 5 6 7 8 9 10 11 12
006
FTUS44 KSHV 030551
TAFTYR
TAF
KTYR 030551Z 0306/0406 09009KT 6SM -RA BKN070 OVC110
     FM030900 08008KT 5SM RA OVC010
     FM031500 08016KT 4SM -RA BR OVC007
     FM032100 07013KT 2SM -RA BR OVC004=

USA.gov is the U.S. government's official web portal to all federal, state and local government web resources and services.